createdAt,value
2023-03-06T00:00:34.175Z,98201.13
2023-03-06T00:03:01.013Z,98189.88
2023-03-06T00:05:27.914Z,98189.31
2023-03-06T00:07:54.517Z,98186.34
2023-03-06T00:10:24.719Z,98184.97
2023-03-06T00:12:52.097Z,98181.47
2023-03-06T00:15:19.524Z,98168.38
2023-03-06T00:17:46.044Z,98166.50
2023-03-06T00:20:13.873Z,98167.22
2023-03-06T00:22:41.078Z,98171.56
2023-03-06T00:25:12.274Z,98168.88
2023-03-06T00:27:40.647Z,98162.72
2023-03-06T00:30:10.609Z,98168.88
2023-03-06T00:32:37.404Z,98161.72
2023-03-06T00:35:04.869Z,98168.06
2023-03-06T00:37:31.468Z,98155.28
2023-03-06T00:39:58.740Z,98155.78
2023-03-06T00:42:25.387Z,98153.41
2023-03-06T00:44:53.562Z,98152.88
2023-03-06T00:47:20.149Z,98144.03
2023-03-06T00:49:46.864Z,98138.69
2023-03-06T00:52:13.836Z,98133.09
2023-03-06T00:54:40.626Z,98136.00
2023-03-06T00:57:07.459Z,98133.91
2023-03-06T00:59:34.238Z,98132.31
2023-03-06T01:02:02.497Z,98134.97
2023-03-06T01:04:29.347Z,98134.91
2023-03-06T01:06:55.869Z,98119.13
2023-03-06T01:09:22.432Z,98116.22
2023-03-06T01:11:48.963Z,98117.63
2023-03-06T01:14:15.617Z,98112.25
2023-03-06T01:16:42.327Z,98111.19
2023-03-06T01:19:10.948Z,98103.44
2023-03-06T01:21:37.527Z,98110.94
2023-03-06T01:24:04.424Z,98105.09
2023-03-06T01:26:31.019Z,98099.16
2023-03-06T01:28:57.619Z,98091.41
2023-03-06T01:31:25.118Z,98089.50
2023-03-06T01:33:51.708Z,98088.06
2023-03-06T01:36:19.595Z,98074.75
2023-03-06T01:38:46.201Z,98078.28
2023-03-06T01:41:12.718Z,98071.13
2023-03-06T01:43:40.201Z,98065.78
2023-03-06T01:46:36.266Z,98065.78
2023-03-06T01:49:06.531Z,98067.84
2023-03-06T01:51:38.309Z,98065.78
2023-03-06T01:54:09.120Z,98066.28
2023-03-06T01:56:36.516Z,98062.81
2023-03-06T01:59:03.874Z,98053.97
2023-03-06T02:01:31.923Z,98058.25
2023-03-06T02:04:00.682Z,98052.91
2023-03-06T02:06:27.320Z,98053.66
2023-03-06T02:08:56.028Z,98053.09
2023-03-06T02:11:24.005Z,98038.38
2023-03-06T02:13:53.646Z,98042.47
2023-03-06T02:16:23.672Z,98035.50
2023-03-06T02:18:51.211Z,98032.31
2023-03-06T02:21:23.042Z,98033.41
2023-03-06T02:24:04.798Z,98023.78
2023-03-06T02:26:34.485Z,98022.69
2023-03-06T02:29:01.221Z,98020.59
2023-03-06T02:31:29.855Z,98021.09
2023-03-06T02:34:05.169Z,98022.19
2023-03-06T02:36:33.684Z,98018.72
2023-03-06T02:39:01.265Z,98014.38
2023-03-06T02:41:28.031Z,98013.56
2023-03-06T02:43:55.996Z,98012.56
2023-03-06T02:46:22.621Z,98007.69
2023-03-06T02:48:49.372Z,98008.22
2023-03-06T02:51:16.039Z,97996.41
2023-03-06T02:53:42.766Z,98003.38
2023-03-06T02:56:09.302Z,97996.41
2023-03-06T02:58:35.876Z,98001.53
2023-03-06T03:01:04.290Z,98000.19
2023-03-06T03:03:31.395Z,97997.22
2023-03-06T03:05:57.913Z,97995.63
2023-03-06T03:08:24.684Z,97993.72
2023-03-06T03:10:51.410Z,97985.69
2023-03-06T03:13:18.081Z,97984.59
2023-03-06T03:15:44.653Z,97983.81
2023-03-06T03:18:12.585Z,97985.13
2023-03-06T03:20:42.222Z,97978.34
2023-03-06T03:23:08.884Z,97981.81
2023-03-06T03:25:35.382Z,97979.75
2023-03-06T03:28:02.056Z,97973.28
2023-03-06T03:30:28.582Z,97971.41
2023-03-06T03:32:55.139Z,97975.69
2023-03-06T03:35:23.389Z,97966.84
2023-03-06T03:37:49.984Z,97966.84
2023-03-06T03:40:17.002Z,97960.91
2023-03-06T03:42:43.540Z,97960.91
2023-03-06T03:45:11.115Z,97959.53
2023-03-06T03:47:37.896Z,97957.34
2023-03-06T03:50:05.257Z,97953.38
2023-03-06T03:52:33.154Z,97959.53
2023-03-06T03:54:59.770Z,97950.69
2023-03-06T03:57:26.344Z,97950.97
2023-03-06T03:59:53.180Z,97940.25
2023-03-06T04:02:19.797Z,97948.59
2023-03-06T04:04:46.433Z,97935.19
2023-03-06T04:07:13.103Z,97935.78
2023-03-06T04:09:41.332Z,97929.31
2023-03-06T04:12:08.304Z,97923.50
2023-03-06T04:14:35.021Z,97927.72
2023-03-06T04:17:01.819Z,97919.91
2023-03-06T04:19:28.550Z,97914.06
2023-03-06T04:21:55.126Z,97919.69
2023-03-06T04:24:21.702Z,97923.19
2023-03-06T04:26:49.569Z,97922.09
2023-03-06T04:29:16.302Z,97916.16
2023-03-06T04:31:42.930Z,97914.84
2023-03-06T04:34:09.551Z,97912.47
2023-03-06T04:36:36.616Z,97914.16
2023-03-06T04:39:04.091Z,97907.22
2023-03-06T04:41:30.666Z,97908.00
2023-03-06T04:43:58.730Z,97900.53
2023-03-06T04:46:25.311Z,97902.13
2023-03-06T04:48:51.858Z,97897.28
2023-03-06T04:51:18.759Z,97893.53
2023-03-06T04:53:45.275Z,97895.13
2023-03-06T04:56:11.834Z,97890.53
2023-03-06T04:58:38.583Z,97889.75
2023-03-06T05:01:06.548Z,97893.81
2023-03-06T05:03:33.315Z,97887.66
2023-03-06T05:05:59.911Z,97888.16
2023-03-06T05:08:26.457Z,97888.16
2023-03-06T05:10:57.457Z,97884.69
2023-03-06T05:13:24.554Z,97885.78
2023-03-06T05:15:51.695Z,97888.16
2023-03-06T05:18:20.235Z,97879.31
2023-03-06T05:20:47.160Z,97877.44
2023-03-06T05:23:13.761Z,97877.72
2023-03-06T05:25:41.112Z,97883.59
2023-03-06T05:28:08.265Z,97877.44
2023-03-06T05:30:35.335Z,97874.75
2023-03-06T05:33:02.142Z,97874.75
2023-03-06T05:35:30.060Z,97872.38
2023-03-06T05:37:56.635Z,97869.69
2023-03-06T05:40:23.200Z,97873.47
2023-03-06T05:42:49.806Z,97870.00
2023-03-06T05:45:16.752Z,97873.47
2023-03-06T05:47:43.301Z,97866.00
2023-03-06T05:50:11.448Z,97871.88
2023-03-06T05:52:39.803Z,97868.91
2023-03-06T05:55:09.873Z,97870.00
2023-03-06T05:57:36.616Z,97870.00
2023-03-06T06:00:04.037Z,97870.28
2023-03-06T06:02:30.665Z,97865.72
2023-03-06T06:04:57.247Z,97866.50
2023-03-06T06:07:23.904Z,97865.44
2023-03-06T06:09:53.853Z,97866.50
2023-03-06T06:12:20.505Z,97865.72
2023-03-06T06:14:47.021Z,97856.59
2023-03-06T06:17:13.746Z,97870.00
2023-03-06T06:19:40.466Z,97854.72
2023-03-06T06:22:07.053Z,97858.41
2023-03-06T06:24:33.605Z,97862.97
2023-03-06T06:27:03.825Z,97863.16
2023-03-06T06:29:31.238Z,97857.50
2023-03-06T06:31:58.005Z,97859.88
2023-03-06T06:34:25.379Z,97860.19
2023-03-06T06:36:53.589Z,97858.78
2023-03-06T06:39:23.096Z,97859.28
2023-03-06T06:42:26.537Z,97856.63
2023-03-06T06:44:38.397Z,97865.34
2023-03-06T06:47:24.088Z,97868.31
2023-03-06T06:49:52.173Z,97853.81
2023-03-06T06:52:18.928Z,97858.88
2023-03-06T06:54:45.688Z,97863.16
2023-03-06T06:57:13.022Z,97859.97
2023-03-06T06:59:41.194Z,97861.56
2023-03-06T07:02:08.000Z,97869.09
2023-03-06T07:04:34.810Z,97860.09
2023-03-06T07:07:01.663Z,97868.31
2023-03-06T07:09:28.234Z,97862.94
2023-03-06T07:11:54.766Z,97868.59
2023-03-06T07:14:21.324Z,97864.53
2023-03-06T07:16:49.272Z,97866.63
2023-03-06T07:19:16.037Z,97875.47
2023-03-06T07:21:42.603Z,97869.03
2023-03-06T07:24:09.244Z,97869.81
2023-03-06T07:26:35.806Z,97868.91
2023-03-06T07:29:03.406Z,97879.63
2023-03-06T07:31:30.261Z,97879.84
2023-03-06T07:33:58.281Z,97868.78
2023-03-06T07:36:24.872Z,97869.81
2023-03-06T07:38:51.475Z,97863.25
2023-03-06T07:41:18.972Z,97862.84
2023-03-06T07:43:46.836Z,97875.34
2023-03-06T07:46:14.517Z,97871.16
2023-03-06T07:48:41.862Z,97870.78
2023-03-06T07:51:15.247Z,97876.03
2023-03-06T07:53:42.219Z,97877.59
2023-03-06T07:56:09.824Z,97872.44
2023-03-06T07:58:36.486Z,97867.47
2023-03-06T08:01:04.318Z,97865.06
2023-03-06T08:03:31.122Z,97866.97
2023-03-06T08:06:05.427Z,97866.16
2023-03-06T08:08:33.738Z,97873.50
2023-03-06T08:11:00.517Z,97880.66
2023-03-06T08:13:27.078Z,97870.81
2023-03-06T08:15:53.684Z,97865.03
2023-03-06T08:18:20.318Z,97859.34
2023-03-06T08:20:46.866Z,97874.06
2023-03-06T08:23:13.375Z,97862.84
2023-03-06T08:25:41.450Z,97871.59
2023-03-06T08:28:08.010Z,97872.25
2023-03-06T08:30:34.587Z,97884.38
2023-03-06T08:33:01.121Z,97876.41
2023-03-06T08:35:27.927Z,97881.66
2023-03-06T08:37:54.593Z,97874.69
2023-03-06T08:40:21.117Z,97871.59
2023-03-06T08:42:49.505Z,97876.06
2023-03-06T08:45:16.355Z,97872.06
2023-03-06T08:47:42.905Z,97873.09
2023-03-06T08:50:11.086Z,97875.88
2023-03-06T08:52:37.670Z,97877.59
2023-03-06T08:55:04.847Z,97874.66
2023-03-06T08:57:31.627Z,97881.91
2023-03-06T08:59:59.461Z,97875.59
2023-03-06T09:02:26.083Z,97871.50
2023-03-06T09:04:52.614Z,97871.53
2023-03-06T09:07:19.337Z,97875.13
2023-03-06T09:09:45.895Z,97868.47
2023-03-06T09:12:12.478Z,97878.06
2023-03-06T09:14:39.231Z,97887.19
2023-03-06T09:17:07.133Z,97878.63
2023-03-06T09:19:33.842Z,97881.50
2023-03-06T09:22:00.547Z,97884.31
2023-03-06T09:24:27.100Z,97876.44
2023-03-06T09:26:53.631Z,97878.00
2023-03-06T09:29:20.191Z,97880.75
2023-03-06T09:31:46.993Z,97878.59
2023-03-06T09:34:15.323Z,97883.78
2023-03-06T09:36:55.543Z,97881.44
2023-03-06T09:39:23.733Z,97879.41
2023-03-06T09:41:50.917Z,97882.91
2023-03-06T09:44:21.118Z,97878.16
2023-03-06T09:47:07.741Z,97879.59
2023-03-06T09:50:00.421Z,97880.63
2023-03-06T09:52:33.820Z,97876.19
2023-03-06T09:55:09.028Z,97884.44
2023-03-06T09:57:38.255Z,97874.97
2023-03-06T10:00:11.574Z,97877.81
2023-03-06T10:02:41.763Z,97880.16
2023-03-06T10:05:15.726Z,97886.50
2023-03-06T10:07:46.441Z,97875.53
2023-03-06T10:10:19.736Z,97883.75
2023-03-06T10:12:53.243Z,97876.00
2023-03-06T10:15:24.106Z,97877.41
2023-03-06T10:17:50.810Z,97885.78
2023-03-06T10:20:22.772Z,97875.81
2023-03-06T10:23:05.347Z,97873.44
2023-03-06T10:25:37.830Z,97861.59
2023-03-06T10:28:15.510Z,97877.28
2023-03-06T10:30:49.628Z,97873.53
2023-03-06T10:35:56.013Z,97872.78
2023-03-06T10:38:25.022Z,97871.38
2023-03-06T10:41:06.347Z,97877.75
2023-03-06T10:43:36.201Z,97864.69
2023-03-06T10:46:03.885Z,97860.03
2023-03-06T10:48:31.405Z,97861.50
2023-03-06T10:51:18.649Z,97864.88
2023-03-06T10:53:56.231Z,97870.59
2023-03-06T10:56:27.856Z,97870.41
2023-03-06T10:59:06.832Z,97868.19
2023-03-06T11:01:33.641Z,97870.09
2023-03-06T11:04:16.205Z,97858.97
2023-03-06T11:06:44.435Z,97863.78
2023-03-06T11:09:16.293Z,97863.31
2023-03-06T11:11:42.885Z,97865.66
2023-03-06T11:14:15.474Z,97865.53
2023-03-06T11:16:47.431Z,97853.69
2023-03-06T11:19:20.054Z,97853.06
2023-03-06T11:22:00.753Z,97852.78
2023-03-06T11:24:35.289Z,97853.47
2023-03-06T11:27:08.960Z,97862.00
2023-03-06T11:29:39.535Z,97856.81
2023-03-06T11:32:12.346Z,97855.06
2023-03-06T11:34:44.476Z,97862.69
2023-03-06T11:37:20.201Z,97854.44
2023-03-06T11:39:53.421Z,97855.38
2023-03-06T11:42:26.017Z,97859.66
2023-03-06T11:45:03.529Z,97853.63
2023-03-06T11:47:36.230Z,97857.91
2023-03-06T11:50:16.564Z,97855.03
2023-03-06T11:52:48.829Z,97850.94
2023-03-06T11:55:22.842Z,97849.47
2023-03-06T11:57:56.861Z,97852.03
2023-03-06T12:00:32.794Z,97854.72
2023-03-06T12:03:23.138Z,97851.72
2023-03-06T12:06:00.957Z,97853.78
2023-03-06T12:08:51.148Z,97845.38
2023-03-06T12:11:20.853Z,97846.66
2023-03-06T12:14:06.925Z,97846.47
2023-03-06T12:16:53.516Z,97844.75
2023-03-06T12:19:30.045Z,97843.47
2023-03-06T12:22:13.857Z,97847.88
2023-03-06T12:25:07.103Z,97840.47
2023-03-06T12:27:43.977Z,97846.16
2023-03-06T12:30:33.963Z,97843.47
2023-03-06T12:33:12.137Z,97849.16
2023-03-06T12:36:02.025Z,97843.78
2023-03-06T12:38:53.257Z,97847.09
2023-03-06T12:41:33.562Z,97840.75
2023-03-06T12:44:32.553Z,97842.34
2023-03-06T12:47:02.133Z,97839.66
2023-03-06T12:49:32.839Z,97841.69
2023-03-06T12:52:01.263Z,97840.94
2023-03-06T12:54:30.575Z,97852.81
2023-03-06T12:57:00.564Z,97839.81
2023-03-06T12:59:39.128Z,97837.78
2023-03-06T13:02:51.469Z,97843.19
2023-03-06T13:06:02.653Z,97855.66
2023-03-06T13:09:03.623Z,97853.69
2023-03-06T13:12:03.220Z,97850.53
2023-03-06T13:14:54.538Z,97848.94
2023-03-06T13:17:34.340Z,97850.09
2023-03-06T13:20:28.016Z,97850.53
2023-03-06T13:22:54.733Z,97840.75
2023-03-06T13:25:49.361Z,97849.94
2023-03-06T13:28:24.412Z,97844.38
2023-03-06T13:30:53.287Z,97850.91
2023-03-06T13:33:51.801Z,97842.34
2023-03-06T13:36:27.386Z,97841.09
2023-03-06T13:39:10.253Z,97831.75
2023-03-06T13:41:56.869Z,97834.13
2023-03-06T13:44:44.790Z,97825.44
2023-03-06T13:48:15.629Z,97821.16
2023-03-06T13:50:39.796Z,97826.06
2023-03-06T13:53:39.048Z,97832.09
2023-03-06T13:56:41.776Z,97822.25
2023-03-06T13:59:37.523Z,97817.66
2023-03-06T14:02:25.091Z,97817.47
2023-03-06T14:04:57.762Z,97814.63
2023-03-06T14:07:28.245Z,97811.13
2023-03-06T14:10:19.742Z,97815.22
2023-03-06T14:13:01.286Z,97808.88
2023-03-06T14:15:32.080Z,97801.00
2023-03-06T14:18:01.587Z,97803.66
2023-03-06T14:20:40.305Z,97806.19
2023-03-06T14:23:23.337Z,97798.47
2023-03-06T14:25:56.843Z,97800.06
2023-03-06T14:28:24.824Z,97799.38
2023-03-06T14:30:52.357Z,97805.72
2023-03-06T14:33:39.221Z,97793.38
2023-03-06T14:36:12.621Z,97789.59
2023-03-06T14:38:45.452Z,97789.41
2023-03-06T14:41:14.058Z,97789.41
2023-03-06T14:43:40.790Z,97795.41
2023-03-06T14:46:07.354Z,97792.88
2023-03-06T14:48:40.324Z,97788.78
2023-03-06T14:51:15.639Z,97790.19
2023-03-06T14:53:43.823Z,97795.09
2023-03-06T14:56:16.488Z,97794.16
2023-03-06T14:58:50.821Z,97793.88
2023-03-06T15:01:23.463Z,97792.13
2023-03-06T15:03:52.472Z,97798.09
2023-03-06T15:06:23.947Z,97799.38
2023-03-06T15:08:58.868Z,97791.63
2023-03-06T15:11:25.614Z,97794.50
2023-03-06T15:14:02.645Z,97798.47
2023-03-06T15:16:30.678Z,97798.47
2023-03-06T15:18:58.995Z,97801.16
2023-03-06T15:21:29.418Z,97793.41
2023-03-06T15:23:56.967Z,97800.38
2023-03-06T15:26:30.560Z,97799.09
2023-03-06T15:29:08.676Z,97790.22
2023-03-06T15:31:37.557Z,97797.16
2023-03-06T15:34:15.633Z,97793.81
2023-03-06T15:36:45.223Z,97790.66
2023-03-06T15:39:32.513Z,97799.03
2023-03-06T15:41:59.980Z,97793.78
2023-03-06T15:44:28.924Z,97791.09
2023-03-06T15:47:07.768Z,97789.53
2023-03-06T15:49:36.986Z,97791.91
2023-03-06T15:52:05.105Z,97787.16
2023-03-06T15:54:33.003Z,97786.66
2023-03-06T15:56:59.961Z,97781.31
2023-03-06T15:59:29.292Z,97785.88
2023-03-06T16:01:55.865Z,97786.38
2023-03-06T16:04:22.554Z,97782.09
2023-03-06T16:06:49.202Z,97782.09
2023-03-06T16:09:17.099Z,97777.50
2023-03-06T16:11:44.380Z,97774.50
2023-03-06T16:14:18.920Z,97771.66
2023-03-06T16:16:45.876Z,97774.84
2023-03-06T16:19:25.242Z,97781.31
2023-03-06T16:21:52.673Z,97776.75
2023-03-06T16:24:20.751Z,97781.13
2023-03-06T16:26:49.614Z,97786.38
2023-03-06T16:29:17.667Z,97778.59
2023-03-06T16:31:44.327Z,97780.31
2023-03-06T16:34:10.871Z,97777.19
2023-03-06T16:36:37.558Z,97777.00
2023-03-06T16:39:04.416Z,97774.78
2023-03-06T16:41:32.611Z,97777.59
2023-03-06T16:43:59.137Z,97774.88
2023-03-06T16:46:25.870Z,97771.41
2023-03-06T16:48:52.579Z,97774.56
2023-03-06T16:51:21.304Z,97767.75
2023-03-06T16:53:48.859Z,97770.44
2023-03-06T16:56:17.157Z,97772.13
2023-03-06T16:58:45.247Z,97771.81
2023-03-06T17:01:15.429Z,97772.78
2023-03-06T17:03:42.065Z,97774.16
2023-03-06T17:06:13.597Z,97783.44
2023-03-06T17:08:40.160Z,97780.72
2023-03-06T17:11:07.112Z,97781.94
2023-03-06T17:13:33.834Z,97781.94
2023-03-06T17:16:02.032Z,97786.97
2023-03-06T17:18:29.809Z,97787.56
2023-03-06T17:20:56.915Z,97778.06
2023-03-06T17:23:26.094Z,97791.44
2023-03-06T17:25:52.762Z,97786.97
2023-03-06T17:28:19.286Z,97779.66
2023-03-06T17:30:46.024Z,97787.84
2023-03-06T17:33:13.943Z,97782.09
2023-03-06T17:35:40.524Z,97787.63
2023-03-06T17:38:07.250Z,97782.88
2023-03-06T17:40:33.990Z,97776.75
2023-03-06T17:43:00.623Z,97781.41
2023-03-06T17:45:27.157Z,97790.84
2023-03-06T17:47:53.990Z,97786.78
2023-03-06T17:50:21.979Z,97791.78
2023-03-06T17:52:48.541Z,97784.53
2023-03-06T17:55:15.377Z,97790.31
2023-03-06T17:57:41.977Z,97790.31
2023-03-06T18:00:10.138Z,97790.00
2023-03-06T18:02:36.667Z,97789.69
2023-03-06T18:05:03.924Z,97790.69
2023-03-06T18:07:31.988Z,97789.59
2023-03-06T18:09:58.580Z,97791.19
2023-03-06T18:12:25.397Z,97792.44
2023-03-06T18:14:51.995Z,97792.16
2023-03-06T18:17:18.591Z,97795.63
2023-03-06T18:19:45.150Z,97789.38
2023-03-06T18:22:11.848Z,97788.72
2023-03-06T18:24:39.735Z,97795.38
2023-03-06T18:27:06.295Z,97785.09
2023-03-06T18:29:32.821Z,97784.28
2023-03-06T18:31:59.527Z,97782.00
2023-03-06T18:34:26.203Z,97784.81
2023-03-06T18:36:52.749Z,97775.03
2023-03-06T18:39:20.115Z,97779.59
2023-03-06T18:41:48.177Z,97778.59
2023-03-06T18:44:15.901Z,97771.66
2023-03-06T18:46:42.470Z,97779.19
2023-03-06T18:49:10.290Z,97777.13
2023-03-06T18:51:36.979Z,97777.72
2023-03-06T18:54:05.778Z,97779.91
2023-03-06T18:56:32.943Z,97781.81
2023-03-06T18:59:03.822Z,97782.78
2023-03-06T19:01:31.058Z,97778.03
2023-03-06T19:03:59.805Z,97777.84
2023-03-06T19:06:27.931Z,97782.72
2023-03-06T19:08:54.699Z,97781.44
2023-03-06T19:11:21.487Z,97781.56
2023-03-06T19:13:48.182Z,97783.22
2023-03-06T19:16:22.090Z,97783.53
2023-03-06T19:18:48.646Z,97788.38
2023-03-06T19:21:17.721Z,97772.94
2023-03-06T19:23:44.735Z,97775.69
2023-03-06T19:26:12.079Z,97774.44
2023-03-06T19:28:40.505Z,97768.38
2023-03-06T19:31:08.766Z,97775.91
2023-03-06T19:33:36.781Z,97772.06
2023-03-06T19:36:03.857Z,97762.91
2023-03-06T19:38:30.396Z,97765.81
2023-03-06T19:40:56.987Z,97760.94
2023-03-06T19:43:23.538Z,97759.84
2023-03-06T19:45:50.260Z,97758.56
2023-03-06T19:48:16.822Z,97756.84
2023-03-06T19:50:45.032Z,97749.53
2023-03-06T19:53:11.581Z,97748.97
2023-03-06T19:55:38.431Z,97751.56
2023-03-06T19:58:05.306Z,97747.16
2023-03-06T20:00:32.271Z,97739.25
2023-03-06T20:02:58.878Z,97743.63
2023-03-06T20:05:25.540Z,97744.75
2023-03-06T20:07:53.474Z,97740.28
2023-03-06T20:10:20.361Z,97735.69
2023-03-06T20:12:46.979Z,97736.78
2023-03-06T20:15:13.611Z,97737.28
2023-03-06T20:17:40.411Z,97722.59
2023-03-06T20:20:08.349Z,97730.63
2023-03-06T20:22:35.203Z,97723.19
2023-03-06T20:25:03.329Z,97718.44
2023-03-06T20:27:30.097Z,97724.31
2023-03-06T20:29:56.861Z,97717.97
2023-03-06T20:32:23.435Z,97717.97
2023-03-06T20:34:49.996Z,97713.88
2023-03-06T20:37:16.496Z,97719.53
2023-03-06T20:39:43.170Z,97710.59
2023-03-06T20:42:11.059Z,97703.34
2023-03-06T20:44:37.640Z,97703.63
2023-03-06T20:47:04.226Z,97699.53
2023-03-06T20:49:30.890Z,97696.56
2023-03-06T20:51:57.485Z,97689.47
2023-03-06T20:54:24.249Z,97689.47
2023-03-06T20:56:50.859Z,97681.06
2023-03-06T20:59:18.833Z,97692.66
2023-03-06T21:01:46.401Z,97689.00
2023-03-06T21:04:14.396Z,97684.13
2023-03-06T21:06:43.143Z,97679.69
2023-03-06T21:09:10.646Z,97671.50
2023-03-06T21:11:37.241Z,97668.03
2023-03-06T21:14:03.826Z,97670.41
2023-03-06T21:16:31.957Z,97665.84
2023-03-06T21:18:59.779Z,97658.31
2023-03-06T21:21:28.782Z,97655.22
2023-03-06T21:23:55.380Z,97657.00
2023-03-06T21:26:24.447Z,97647.56
2023-03-06T21:28:51.186Z,97652.19
2023-03-06T21:31:19.952Z,97646.69
2023-03-06T21:33:49.186Z,97640.25
2023-03-06T21:36:16.225Z,97635.56
2023-03-06T21:38:42.814Z,97641.41
2023-03-06T21:41:14.028Z,97633.34
2023-03-06T21:43:40.950Z,97635.28
2023-03-06T21:46:08.146Z,97633.88
2023-03-06T21:48:34.913Z,97638.75
2023-03-06T21:51:08.592Z,97630.56
2023-03-06T21:53:35.777Z,97636.53
2023-03-06T21:56:02.963Z,97622.81
2023-03-06T21:58:30.015Z,97619.97
2023-03-06T22:00:57.046Z,97615.59
2023-03-06T22:03:23.688Z,97613.22
2023-03-06T22:05:50.264Z,97616.69
2023-03-06T22:08:18.438Z,97610.03
2023-03-06T22:10:47.047Z,97609.09
2023-03-06T22:13:15.122Z,97603.59
2023-03-06T22:15:49.713Z,97599.50
2023-03-06T22:18:16.298Z,97597.97
2023-03-06T22:20:42.845Z,97600.63
2023-03-06T22:23:09.451Z,97601.13
2023-03-06T22:25:37.324Z,97589.59
2023-03-06T22:28:04.070Z,97595.75
2023-03-06T22:30:30.741Z,97585.16
2023-03-06T22:32:57.373Z,97575.84
2023-03-06T22:35:23.926Z,97577.44
2023-03-06T22:37:50.472Z,97575.06
2023-03-06T22:40:17.283Z,97571.28
2023-03-06T22:42:45.213Z,97570.94
2023-03-06T22:45:12.171Z,97561.34
2023-03-06T22:47:38.961Z,97561.00
2023-03-06T22:50:06.672Z,97566.22
2023-03-06T22:52:33.601Z,97545.69
2023-03-06T22:55:00.195Z,97547.44
2023-03-06T22:57:26.736Z,97554.50
2023-03-06T22:59:54.657Z,97554.34
2023-03-06T23:02:21.496Z,97555.16
2023-03-06T23:04:48.942Z,97548.00
2023-03-06T23:07:15.557Z,97547.72
2023-03-06T23:09:42.128Z,97548.31
2023-03-06T23:12:09.173Z,97539.03
2023-03-06T23:14:35.723Z,97537.75
2023-03-06T23:17:04.012Z,97526.03
2023-03-06T23:19:31.129Z,97527.94
2023-03-06T23:21:57.770Z,97528.41
2023-03-06T23:24:24.428Z,97527.13
2023-03-06T23:26:51.158Z,97523.81
2023-03-06T23:29:17.742Z,97526.31
2023-03-06T23:31:44.366Z,97528.19
2023-03-06T23:34:12.398Z,97523.63
2023-03-06T23:36:38.986Z,97519.84
2023-03-06T23:39:05.501Z,97519.84
2023-03-06T23:41:32.099Z,97509.91
2023-03-06T23:43:58.674Z,97513.09
2023-03-06T23:46:25.285Z,97515.56
2023-03-06T23:48:52.032Z,97505.00
2023-03-06T23:51:22.300Z,97506.88
2023-03-06T23:53:54.862Z,97520.28
2023-03-06T23:56:21.830Z,97508.13
2023-03-06T23:58:48.428Z,97499.16
